sensor_id;sensor_type;location;lat;lon;timestamp;pressure;altitude;pressure_sealevel;temperature;humidity
66479;BME280;53294;47.912;13.526;2022-12-07T00:00:14;96061.81;;;4.30;68.73
66479;BME280;53294;47.912;13.526;2022-12-07T00:02:41;96062.72;;;4.46;68.22
66479;BME280;53294;47.912;13.526;2022-12-07T00:05:08;96061.66;;;4.47;68.07
66479;BME280;53294;47.912;13.526;2022-12-07T00:07:34;96066.31;;;3.87;70.01
66479;BME280;53294;47.912;13.526;2022-12-07T00:10:01;96064.16;;;3.78;70.36
66479;BME280;53294;47.912;13.526;2022-12-07T00:12:28;96056.63;;;3.65;70.82
66479;BME280;53294;47.912;13.526;2022-12-07T00:14:55;96063.97;;;3.53;71.08
66479;BME280;53294;47.912;13.526;2022-12-07T00:17:21;96052.63;;;3.35;72.03
66479;BME280;53294;47.912;13.526;2022-12-07T00:19:48;96054.25;;;3.36;71.78
66479;BME280;53294;47.912;13.526;2022-12-07T00:22:15;96054.25;;;3.36;71.92
66479;BME280;53294;47.912;13.526;2022-12-07T00:24:41;96054.03;;;3.43;71.76
66479;BME280;53294;47.912;13.526;2022-12-07T00:27:08;96055.44;;;3.51;72.02
66479;BME280;53294;47.912;13.526;2022-12-07T00:29:34;96052.31;;;3.59;71.24
66479;BME280;53294;47.912;13.526;2022-12-07T00:32:03;96042.59;;;3.70;71.07
66479;BME280;53294;47.912;13.526;2022-12-07T00:34:30;96046.00;;;3.65;71.47
66479;BME280;53294;47.912;13.526;2022-12-07T00:36:56;96044.31;;;3.91;70.45
66479;BME280;53294;47.912;13.526;2022-12-07T00:39:23;96039.16;;;3.74;71.37
66479;BME280;53294;47.912;13.526;2022-12-07T00:41:50;96046.19;;;3.96;70.78
66479;BME280;53294;47.912;13.526;2022-12-07T00:44:16;96046.78;;;4.03;70.17
66479;BME280;53294;47.912;13.526;2022-12-07T00:46:43;96046.28;;;4.11;70.32
66479;BME280;53294;47.912;13.526;2022-12-07T00:49:11;96044.63;;;3.95;70.66
66479;BME280;53294;47.912;13.526;2022-12-07T00:51:38;96039.06;;;4.02;70.43
66479;BME280;53294;47.912;13.526;2022-12-07T00:54:05;96045.44;;;3.63;72.26
66479;BME280;53294;47.912;13.526;2022-12-07T00:56:31;96048.03;;;3.53;72.39
66479;BME280;53294;47.912;13.526;2022-12-07T00:59:00;96044.75;;;3.40;72.97
66479;BME280;53294;47.912;13.526;2022-12-07T01:01:31;96044.78;;;3.46;72.85
66479;BME280;53294;47.912;13.526;2022-12-07T01:03:58;96050.22;;;3.34;73.41
66479;BME280;53294;47.912;13.526;2022-12-07T01:06:27;96047.31;;;3.35;73.23
66479;BME280;53294;47.912;13.526;2022-12-07T01:08:54;96041.97;;;3.30;73.56
66479;BME280;53294;47.912;13.526;2022-12-07T01:11:23;96045.44;;;3.31;73.48
66479;BME280;53294;47.912;13.526;2022-12-07T01:13:52;96052.75;;;3.46;73.12
66479;BME280;53294;47.912;13.526;2022-12-07T01:16:20;96057.19;;;3.40;73.23
66479;BME280;53294;47.912;13.526;2022-12-07T01:18:49;96051.34;;;3.38;73.55
66479;BME280;53294;47.912;13.526;2022-12-07T01:21:22;96047.31;;;3.63;72.49
66479;BME280;53294;47.912;13.526;2022-12-07T01:23:49;96050.75;;;3.63;72.57
66479;BME280;53294;47.912;13.526;2022-12-07T01:26:19;96057.13;;;3.62;72.47
66479;BME280;53294;47.912;13.526;2022-12-07T01:28:47;96054.47;;;3.62;72.46
66479;BME280;53294;47.912;13.526;2022-12-07T01:31:15;96048.59;;;3.60;72.71
66479;BME280;53294;47.912;13.526;2022-12-07T01:33:54;96044.94;;;3.66;72.46
66479;BME280;53294;47.912;13.526;2022-12-07T01:36:26;96048.84;;;3.58;72.62
66479;BME280;53294;47.912;13.526;2022-12-07T01:38:59;96047.78;;;3.54;72.82
66479;BME280;53294;47.912;13.526;2022-12-07T01:41:29;96041.91;;;3.52;72.99
66479;BME280;53294;47.912;13.526;2022-12-07T01:46:38;96043.28;;;3.60;72.89
66479;BME280;53294;47.912;13.526;2022-12-07T01:49:07;96039.59;;;3.61;72.34
66479;BME280;53294;47.912;13.526;2022-12-07T01:51:34;96035.88;;;3.62;72.33
66479;BME280;53294;47.912;13.526;2022-12-07T01:54:04;96029.25;;;3.32;73.55
66479;BME280;53294;47.912;13.526;2022-12-07T01:56:32;96023.28;;;3.47;72.90
66479;BME280;53294;47.912;13.526;2022-12-07T01:58:59;96026.22;;;3.51;72.47
66479;BME280;53294;47.912;13.526;2022-12-07T02:01:27;96023.56;;;3.51;72.68
66479;BME280;53294;47.912;13.526;2022-12-07T02:03:54;96029.69;;;3.51;72.67
66479;BME280;53294;47.912;13.526;2022-12-07T02:06:24;96029.50;;;3.31;73.35
66479;BME280;53294;47.912;13.526;2022-12-07T02:08:52;96032.13;;;3.26;73.73
66479;BME280;53294;47.912;13.526;2022-12-07T02:11:19;96031.34;;;3.30;73.52
66479;BME280;53294;47.912;13.526;2022-12-07T02:13:46;96032.75;;;3.38;72.99
66479;BME280;53294;47.912;13.526;2022-12-07T02:22:00;96023.88;;;3.54;72.78
66479;BME280;53294;47.912;13.526;2022-12-07T02:27:32;96024.56;;;3.45;73.06
66479;BME280;53294;47.912;13.526;2022-12-07T02:30:07;96016.56;;;3.39;73.79
66479;BME280;53294;47.912;13.526;2022-12-07T02:35:17;96022.16;;;3.43;73.55
66479;BME280;53294;47.912;13.526;2022-12-07T02:40:48;96026.06;;;3.30;74.27
66479;BME280;53294;47.912;13.526;2022-12-07T02:43:21;96018.59;;;3.27;74.34
66479;BME280;53294;47.912;13.526;2022-12-07T02:45:51;96028.72;;;3.30;74.62
66479;BME280;53294;47.912;13.526;2022-12-07T02:48:20;96021.34;;;3.37;74.04
66479;BME280;53294;47.912;13.526;2022-12-07T02:50:52;96029.81;;;3.34;74.74
66479;BME280;53294;47.912;13.526;2022-12-07T02:53:48;96021.72;;;3.19;75.25
66479;BME280;53294;47.912;13.526;2022-12-07T03:07:24;96015.94;;;3.27;75.49
66479;BME280;53294;47.912;13.526;2022-12-07T03:09:59;96015.78;;;3.39;74.75
66479;BME280;53294;47.912;13.526;2022-12-07T03:18:00;96015.56;;;3.46;74.56
66479;BME280;53294;47.912;13.526;2022-12-07T03:20:29;96011.66;;;3.26;75.42
66479;BME280;53294;47.912;13.526;2022-12-07T03:22:58;96021.59;;;3.36;74.98
66479;BME280;53294;47.912;13.526;2022-12-07T03:25:25;96017.88;;;3.37;74.57
66479;BME280;53294;47.912;13.526;2022-12-07T03:27:55;96012.66;;;3.47;74.49
66479;BME280;53294;47.912;13.526;2022-12-07T03:30:34;96011.22;;;3.67;74.08
66479;BME280;53294;47.912;13.526;2022-12-07T03:35:42;96010.66;;;3.65;74.35
66479;BME280;53294;47.912;13.526;2022-12-07T03:38:18;96009.22;;;3.47;74.78
66479;BME280;53294;47.912;13.526;2022-12-07T03:43:19;96005.31;;;3.59;74.42
66479;BME280;53294;47.912;13.526;2022-12-07T03:46:05;96004.13;;;3.83;73.47
66479;BME280;53294;47.912;13.526;2022-12-07T03:48:38;96010.50;;;3.82;73.49
66479;BME280;53294;47.912;13.526;2022-12-07T03:53:38;96018.19;;;3.78;73.84
66479;BME280;53294;47.912;13.526;2022-12-07T03:56:08;96018.97;;;3.78;74.03
66479;BME280;53294;47.912;13.526;2022-12-07T03:58:36;96014.19;;;3.75;74.23
66479;BME280;53294;47.912;13.526;2022-12-07T04:01:03;96017.09;;;3.74;73.81
66479;BME280;53294;47.912;13.526;2022-12-07T04:03:30;96015.31;;;3.90;73.30
66479;BME280;53294;47.912;13.526;2022-12-07T04:05:57;96009.56;;;3.98;72.65
66479;BME280;53294;47.912;13.526;2022-12-07T04:08:25;96013.50;;;3.95;72.58
66479;BME280;53294;47.912;13.526;2022-12-07T04:10:51;96018.03;;;3.95;72.90
66479;BME280;53294;47.912;13.526;2022-12-07T04:13:18;96011.19;;;4.04;72.76
66479;BME280;53294;47.912;13.526;2022-12-07T04:15:44;96014.69;;;4.15;72.33
66479;BME280;53294;47.912;13.526;2022-12-07T04:18:11;96018.22;;;4.26;71.89
66479;BME280;53294;47.912;13.526;2022-12-07T04:20:38;96017.09;;;4.17;71.77
66479;BME280;53294;47.912;13.526;2022-12-07T04:23:04;96010.44;;;4.14;71.82
66479;BME280;53294;47.912;13.526;2022-12-07T04:25:31;96003.75;;;4.11;71.89
66479;BME280;53294;47.912;13.526;2022-12-07T04:27:57;96005.88;;;4.04;71.54
66479;BME280;53294;47.912;13.526;2022-12-07T04:30:24;96018.59;;;4.02;71.55
66479;BME280;53294;47.912;13.526;2022-12-07T04:32:51;96003.84;;;3.79;71.69
66479;BME280;53294;47.912;13.526;2022-12-07T04:35:17;96007.69;;;3.99;71.49
66479;BME280;53294;47.912;13.526;2022-12-07T04:37:44;96008.47;;;3.99;70.70
66479;BME280;53294;47.912;13.526;2022-12-07T04:40:11;96011.88;;;3.89;71.47
66479;BME280;53294;47.912;13.526;2022-12-07T04:42:39;96011.63;;;3.91;71.15
66479;BME280;53294;47.912;13.526;2022-12-07T04:45:06;96013.34;;;4.12;70.63
66479;BME280;53294;47.912;13.526;2022-12-07T04:47:33;96015.56;;;4.26;70.30
66479;BME280;53294;47.912;13.526;2022-12-07T04:49:59;96021.91;;;4.20;70.41
66479;BME280;53294;47.912;13.526;2022-12-07T04:52:26;96015.56;;;4.26;70.56
66479;BME280;53294;47.912;13.526;2022-12-07T04:54:53;96018.72;;;4.23;69.94
66479;BME280;53294;47.912;13.526;2022-12-07T04:57:20;96019.19;;;4.09;70.33
66479;BME280;53294;47.912;13.526;2022-12-07T04:59:46;96017.53;;;4.03;70.20
66479;BME280;53294;47.912;13.526;2022-12-07T05:02:13;96020.75;;;4.05;70.30
66479;BME280;53294;47.912;13.526;2022-12-07T05:04:39;96023.69;;;4.09;70.19
66479;BME280;53294;47.912;13.526;2022-12-07T05:07:06;96019.75;;;4.17;70.11
66479;BME280;53294;47.912;13.526;2022-12-07T05:09:33;96019.25;;;4.25;69.57
66479;BME280;53294;47.912;13.526;2022-12-07T05:11:59;96018.22;;;4.31;69.59
66479;BME280;53294;47.912;13.526;2022-12-07T05:14:26;96014.44;;;4.17;70.08
66479;BME280;53294;47.912;13.526;2022-12-07T05:16:52;96011.09;;;4.42;69.29
66479;BME280;53294;47.912;13.526;2022-12-07T05:19:20;96013.69;;;4.26;69.91
66479;BME280;53294;47.912;13.526;2022-12-07T05:21:47;96011.88;;;4.37;69.72
66479;BME280;53294;47.912;13.526;2022-12-07T05:24:15;96009.53;;;4.51;68.99
66479;BME280;53294;47.912;13.526;2022-12-07T05:26:43;96012.72;;;4.53;68.75
66479;BME280;53294;47.912;13.526;2022-12-07T05:29:14;96013.03;;;4.62;68.90
66479;BME280;53294;47.912;13.526;2022-12-07T05:31:42;96012.47;;;4.49;68.72
66479;BME280;53294;47.912;13.526;2022-12-07T05:34:09;96011.66;;;4.49;69.10
66479;BME280;53294;47.912;13.526;2022-12-07T05:36:36;96011.94;;;4.53;68.81
66479;BME280;53294;47.912;13.526;2022-12-07T05:39:03;96016.22;;;4.59;68.38
66479;BME280;53294;47.912;13.526;2022-12-07T05:41:29;96020.97;;;4.52;68.80
66479;BME280;53294;47.912;13.526;2022-12-07T05:44:14;96019.50;;;4.23;69.39
66479;BME280;53294;47.912;13.526;2022-12-07T05:46:41;96017.88;;;4.12;69.89
66479;BME280;53294;47.912;13.526;2022-12-07T05:49:08;96019.19;;;4.09;69.72
66479;BME280;53294;47.912;13.526;2022-12-07T05:51:34;96020.81;;;4.16;69.58
66479;BME280;53294;47.912;13.526;2022-12-07T05:54:01;96018.72;;;4.23;69.43
66479;BME280;53294;47.912;13.526;2022-12-07T05:56:28;96023.88;;;4.40;68.77
66479;BME280;53294;47.912;13.526;2022-12-07T05:58:54;96015.63;;;4.41;68.94
66479;BME280;53294;47.912;13.526;2022-12-07T06:01:39;96021.72;;;4.42;68.56
66479;BME280;53294;47.912;13.526;2022-12-07T06:04:07;96020.97;;;4.46;68.29
66479;BME280;53294;47.912;13.526;2022-12-07T06:06:33;96024.66;;;4.40;68.45
66479;BME280;53294;47.912;13.526;2022-12-07T06:09:00;96021.97;;;4.35;68.53
66479;BME280;53294;47.912;13.526;2022-12-07T06:11:27;96027.31;;;4.45;68.11
66479;BME280;53294;47.912;13.526;2022-12-07T06:14:13;96023.53;;;4.26;68.56
66479;BME280;53294;47.912;13.526;2022-12-07T06:16:40;96023.00;;;4.29;68.52
66479;BME280;53294;47.912;13.526;2022-12-07T06:19:07;96023.56;;;4.36;68.50
66479;BME280;53294;47.912;13.526;2022-12-07T06:21:34;96030.50;;;4.37;68.28
66479;BME280;53294;47.912;13.526;2022-12-07T06:24:00;96027.81;;;4.37;68.65
66479;BME280;53294;47.912;13.526;2022-12-07T06:26:28;96029.44;;;4.43;68.01
66479;BME280;53294;47.912;13.526;2022-12-07T06:28:54;96035.88;;;4.58;67.85
66479;BME280;53294;47.912;13.526;2022-12-07T06:31:21;96032.72;;;4.66;67.75
66479;BME280;53294;47.912;13.526;2022-12-07T06:33:48;96034.59;;;4.71;67.68
66479;BME280;53294;47.912;13.526;2022-12-07T06:36:14;96032.19;;;4.69;67.18
66479;BME280;53294;47.912;13.526;2022-12-07T06:38:41;96033.25;;;4.63;67.42
66479;BME280;53294;47.912;13.526;2022-12-07T06:41:07;96041.22;;;4.58;67.46
66479;BME280;53294;47.912;13.526;2022-12-07T06:43:34;96035.88;;;4.47;67.31
66479;BME280;53294;47.912;13.526;2022-12-07T06:46:01;96040.50;;;4.20;67.93
66479;BME280;53294;47.912;13.526;2022-12-07T06:48:27;96032.38;;;3.94;68.65
66479;BME280;53294;47.912;13.526;2022-12-07T06:50:54;96041.38;;;3.93;68.21
66479;BME280;53294;47.912;13.526;2022-12-07T06:53:22;96055.69;;;3.87;68.33
66479;BME280;53294;47.912;13.526;2022-12-07T06:55:48;96048.75;;;3.81;68.03
66479;BME280;53294;47.912;13.526;2022-12-07T06:58:15;96055.75;;;3.92;67.82
66479;BME280;53294;47.912;13.526;2022-12-07T07:00:43;96052.91;;;3.66;68.43
66479;BME280;53294;47.912;13.526;2022-12-07T07:03:10;96049.06;;;3.52;68.74
66479;BME280;53294;47.912;13.526;2022-12-07T07:05:36;96048.59;;;3.60;68.19
66479;BME280;53294;47.912;13.526;2022-12-07T07:08:03;96057.06;;;3.57;68.32
66479;BME280;53294;47.912;13.526;2022-12-07T07:10:48;96054.16;;;3.26;69.45
66479;BME280;53294;47.912;13.526;2022-12-07T07:13:14;96061.41;;;3.09;69.96
66479;BME280;53294;47.912;13.526;2022-12-07T07:15:41;96069.28;;;3.26;69.61
66479;BME280;53294;47.912;13.526;2022-12-07T07:18:08;96062.47;;;3.08;70.29
66479;BME280;53294;47.912;13.526;2022-12-07T07:20:35;96061.47;;;3.14;70.12
66479;BME280;53294;47.912;13.526;2022-12-07T07:23:02;96064.06;;;3.09;70.46
66479;BME280;53294;47.912;13.526;2022-12-07T07:25:28;96065.19;;;3.13;69.46
66479;BME280;53294;47.912;13.526;2022-12-07T07:27:55;96068.50;;;3.25;69.13
66479;BME280;53294;47.912;13.526;2022-12-07T07:30:22;96071.78;;;3.37;68.75
66479;BME280;53294;47.912;13.526;2022-12-07T07:32:48;96074.88;;;3.56;68.25
66479;BME280;53294;47.912;13.526;2022-12-07T07:35:15;96073.31;;;3.61;68.23
66479;BME280;53294;47.912;13.526;2022-12-07T07:37:42;96071.47;;;3.61;68.06
66479;BME280;53294;47.912;13.526;2022-12-07T07:40:09;96080.81;;;3.36;68.31
66479;BME280;53294;47.912;13.526;2022-12-07T07:42:36;96076.38;;;3.20;69.04
66479;BME280;53294;47.912;13.526;2022-12-07T07:45:03;96076.59;;;3.40;68.40
66479;BME280;53294;47.912;13.526;2022-12-07T07:47:30;96083.81;;;3.45;67.60
66479;BME280;53294;47.912;13.526;2022-12-07T07:49:57;96093.53;;;3.34;68.28
66479;BME280;53294;47.912;13.526;2022-12-07T07:52:24;96083.63;;;3.57;67.56
66479;BME280;53294;47.912;13.526;2022-12-07T07:54:50;96083.53;;;3.79;66.99
66479;BME280;53294;47.912;13.526;2022-12-07T07:57:17;96079.56;;;3.76;66.83
66479;BME280;53294;47.912;13.526;2022-12-07T07:59:44;96084.88;;;3.76;66.63
66479;BME280;53294;47.912;13.526;2022-12-07T08:02:16;96086.84;;;3.59;67.83
66479;BME280;53294;47.912;13.526;2022-12-07T08:04:44;96088.31;;;3.45;67.63
66479;BME280;53294;47.912;13.526;2022-12-07T08:07:12;96083.19;;;3.65;67.00
66479;BME280;53294;47.912;13.526;2022-12-07T08:09:39;96085.28;;;3.63;67.05
66479;BME280;53294;47.912;13.526;2022-12-07T08:12:06;96095.72;;;3.42;66.77
66479;BME280;53294;47.912;13.526;2022-12-07T08:14:33;96090.13;;;3.12;68.16
66479;BME280;53294;47.912;13.526;2022-12-07T08:17:00;96091.03;;;2.95;68.59
66479;BME280;53294;47.912;13.526;2022-12-07T08:19:27;96098.31;;;2.83;68.60
66479;BME280;53294;47.912;13.526;2022-12-07T08:21:54;96104.88;;;3.02;68.04
66479;BME280;53294;47.912;13.526;2022-12-07T08:24:22;96098.06;;;3.12;67.84
66479;BME280;53294;47.912;13.526;2022-12-07T08:26:49;96112.06;;;3.29;67.28
66479;BME280;53294;47.912;13.526;2022-12-07T08:29:17;96106.16;;;3.22;66.88
66479;BME280;53294;47.912;13.526;2022-12-07T08:31:44;96106.50;;;3.31;66.58
66479;BME280;53294;47.912;13.526;2022-12-07T08:34:11;96104.34;;;3.55;66.26
66479;BME280;53294;47.912;13.526;2022-12-07T08:36:38;96107.72;;;3.77;66.05
66479;BME280;53294;47.912;13.526;2022-12-07T08:39:05;96113.72;;;3.95;65.67
66479;BME280;53294;47.912;13.526;2022-12-07T08:41:52;96116.25;;;4.17;65.25
66479;BME280;53294;47.912;13.526;2022-12-07T08:44:19;96116.19;;;4.07;65.46
66479;BME280;53294;47.912;13.526;2022-12-07T08:46:50;96120.81;;;4.22;65.35
66479;BME280;53294;47.912;13.526;2022-12-07T08:49:25;96121.06;;;4.20;64.88
66479;BME280;53294;47.912;13.526;2022-12-07T08:51:54;96117.03;;;4.12;64.64
66479;BME280;53294;47.912;13.526;2022-12-07T08:54:21;96125.44;;;3.99;65.04
66479;BME280;53294;47.912;13.526;2022-12-07T08:56:49;96114.72;;;3.89;65.10
66479;BME280;53294;47.912;13.526;2022-12-07T08:59:24;96116.81;;;3.87;65.80
66479;BME280;53294;47.912;13.526;2022-12-07T09:01:52;96118.28;;;4.00;65.27
66479;BME280;53294;47.912;13.526;2022-12-07T09:04:19;96121.78;;;3.73;65.85
66479;BME280;53294;47.912;13.526;2022-12-07T09:06:47;96124.34;;;3.35;66.65
66479;BME280;53294;47.912;13.526;2022-12-07T09:09:14;96125.38;;;3.07;67.68
66479;BME280;53294;47.912;13.526;2022-12-07T09:11:41;96122.97;;;3.05;67.64
66479;BME280;53294;47.912;13.526;2022-12-07T09:14:08;96119.44;;;3.22;67.75
66479;BME280;53294;47.912;13.526;2022-12-07T09:16:34;96116.94;;;3.37;67.33
66479;BME280;53294;47.912;13.526;2022-12-07T09:19:01;96125.28;;;3.24;67.46
66479;BME280;53294;47.912;13.526;2022-12-07T09:21:28;96123.88;;;3.16;68.32
66479;BME280;53294;47.912;13.526;2022-12-07T09:23:54;96115.31;;;3.36;67.88
66479;BME280;53294;47.912;13.526;2022-12-07T09:26:21;96124.69;;;3.44;67.65
66479;BME280;53294;47.912;13.526;2022-12-07T09:28:48;96114.88;;;3.45;67.14
66479;BME280;53294;47.912;13.526;2022-12-07T09:31:15;96109.56;;;3.45;67.29
66479;BME280;53294;47.912;13.526;2022-12-07T09:34:09;96116.78;;;3.22;67.15
66479;BME280;53294;47.912;13.526;2022-12-07T09:36:35;96108.97;;;2.88;68.83
66479;BME280;53294;47.912;13.526;2022-12-07T09:39:03;96113.16;;;2.84;69.64
66479;BME280;53294;47.912;13.526;2022-12-07T09:41:31;96111.25;;;2.57;69.84
66479;BME280;53294;47.912;13.526;2022-12-07T09:44:07;96106.69;;;2.97;69.30
66479;BME280;53294;47.912;13.526;2022-12-07T09:46:39;96109.97;;;3.31;67.93
66479;BME280;53294;47.912;13.526;2022-12-07T09:49:15;96102.16;;;3.47;67.48
66479;BME280;53294;47.912;13.526;2022-12-07T09:51:43;96102.38;;;3.72;67.08
66479;BME280;53294;47.912;13.526;2022-12-07T09:54:14;96100.88;;;3.87;67.12
66479;BME280;53294;47.912;13.526;2022-12-07T09:56:44;96103.38;;;3.99;66.73
66479;BME280;53294;47.912;13.526;2022-12-07T09:59:17;96098.19;;;3.82;66.95
66479;BME280;53294;47.912;13.526;2022-12-07T10:01:47;96100.19;;;3.37;68.76
66479;BME280;53294;47.912;13.526;2022-12-07T10:04:25;96093.22;;;3.31;68.91
66479;BME280;53294;47.912;13.526;2022-12-07T10:06:53;96082.38;;;3.65;68.16
66479;BME280;53294;47.912;13.526;2022-12-07T10:09:21;96084.41;;;3.90;67.38
66479;BME280;53294;47.912;13.526;2022-12-07T10:12:16;96085.53;;;3.94;67.15
66479;BME280;53294;47.912;13.526;2022-12-07T10:15:00;96078.50;;;4.15;66.67
66479;BME280;53294;47.912;13.526;2022-12-07T10:17:41;96084.88;;;3.76;67.77
66479;BME280;53294;47.912;13.526;2022-12-07T10:20:18;96075.88;;;3.23;69.80
66479;BME280;53294;47.912;13.526;2022-12-07T10:22:55;96080.50;;;3.05;70.75
66479;BME280;53294;47.912;13.526;2022-12-07T10:25:27;96087.41;;;3.07;71.39
66479;BME280;53294;47.912;13.526;2022-12-07T10:28:12;96081.28;;;2.79;72.07
66479;BME280;53294;47.912;13.526;2022-12-07T10:30:55;96082.13;;;2.62;72.01
66479;BME280;53294;47.912;13.526;2022-12-07T10:33:30;96078.25;;;2.70;71.34
66479;BME280;53294;47.912;13.526;2022-12-07T10:35:58;96077.56;;;2.80;70.63
66479;BME280;53294;47.912;13.526;2022-12-07T10:38:26;96072.56;;;2.83;71.00
66479;BME280;53294;47.912;13.526;2022-12-07T10:41:04;96067.06;;;2.90;71.13
66479;BME280;53294;47.912;13.526;2022-12-07T10:43:31;96068.88;;;3.12;70.49
66479;BME280;53294;47.912;13.526;2022-12-07T10:56:52;96083.06;;;2.73;71.99
66479;BME280;53294;47.912;13.526;2022-12-07T11:07:14;96060.22;;;2.94;69.04
66479;BME280;53294;47.912;13.526;2022-12-07T11:10:22;96056.81;;;2.99;67.93
66479;BME280;53294;47.912;13.526;2022-12-07T11:15:31;96048.50;;;2.90;67.05
66479;BME280;53294;47.912;13.526;2022-12-07T11:18:15;96044.75;;;2.86;67.45
66479;BME280;53294;47.912;13.526;2022-12-07T11:24:10;96038.44;;;2.92;66.07
66479;BME280;53294;47.912;13.526;2022-12-07T11:30:02;96026.31;;;3.01;65.95
66479;BME280;53294;47.912;13.526;2022-12-07T11:37:59;96031.09;;;3.04;65.43
66479;BME280;53294;47.912;13.526;2022-12-07T11:40:31;96031.03;;;2.94;64.95
66479;BME280;53294;47.912;13.526;2022-12-07T11:45:42;96027.72;;;3.09;64.72
66479;BME280;53294;47.912;13.526;2022-12-07T11:48:31;96027.09;;;2.75;63.91
66479;BME280;53294;47.912;13.526;2022-12-07T11:51:00;96020.72;;;2.71;65.23
66479;BME280;53294;47.912;13.526;2022-12-07T11:56:19;96016.28;;;3.09;63.82
66479;BME280;53294;47.912;13.526;2022-12-07T11:59:11;96013.00;;;3.23;65.16
66479;BME280;53294;47.912;13.526;2022-12-07T12:01:50;96014.25;;;3.16;64.82
66479;BME280;53294;47.912;13.526;2022-12-07T12:05:06;96012.44;;;3.54;63.00
66479;BME280;53294;47.912;13.526;2022-12-07T12:07:26;96007.19;;;3.59;62.11
66479;BME280;53294;47.912;13.526;2022-12-07T12:10:15;96010.75;;;3.42;63.57
66479;BME280;53294;47.912;13.526;2022-12-07T12:13:02;96000.91;;;3.75;63.44
66479;BME280;53294;47.912;13.526;2022-12-07T12:21:35;95997.22;;;3.82;61.90
66479;BME280;53294;47.912;13.526;2022-12-07T12:24:10;95994.25;;;3.73;62.57
66479;BME280;53294;47.912;13.526;2022-12-07T12:26:49;95989.41;;;4.07;61.50
66479;BME280;53294;47.912;13.526;2022-12-07T12:29:42;95989.16;;;4.14;61.35
66479;BME280;53294;47.912;13.526;2022-12-07T12:35:21;95985.66;;;4.08;60.78
66479;BME280;53294;47.912;13.526;2022-12-07T12:37:52;95980.41;;;4.19;61.15
66479;BME280;53294;47.912;13.526;2022-12-07T12:42:55;95980.47;;;4.29;60.56
66479;BME280;53294;47.912;13.526;2022-12-07T12:45:30;95979.66;;;4.28;59.68
66479;BME280;53294;47.912;13.526;2022-12-07T12:48:00;95978.63;;;3.87;60.86
66479;BME280;53294;47.912;13.526;2022-12-07T12:50:37;95973.38;;;3.97;60.43
66479;BME280;53294;47.912;13.526;2022-12-07T12:58:29;95976.31;;;4.01;61.07
66479;BME280;53294;47.912;13.526;2022-12-07T13:04:00;95971.31;;;4.09;61.14
66479;BME280;53294;47.912;13.526;2022-12-07T13:08:56;95960.22;;;4.23;59.58
66479;BME280;53294;47.912;13.526;2022-12-07T13:17:11;95957.09;;;4.41;59.60
66479;BME280;53294;47.912;13.526;2022-12-07T13:22:49;95959.34;;;5.01;60.26
66479;BME280;53294;47.912;13.526;2022-12-07T13:27:59;95957.25;;;5.13;59.70
66479;BME280;53294;47.912;13.526;2022-12-07T13:30:29;95958.84;;;5.14;59.50
66479;BME280;53294;47.912;13.526;2022-12-07T13:32:58;95963.59;;;4.97;59.50
66479;BME280;53294;47.912;13.526;2022-12-07T13:35:34;95960.16;;;5.01;59.60
66479;BME280;53294;47.912;13.526;2022-12-07T13:38:13;95963.09;;;5.26;59.16
66479;BME280;53294;47.912;13.526;2022-12-07T13:40:41;95964.69;;;5.42;58.82
66479;BME280;53294;47.912;13.526;2022-12-07T13:43:15;95959.34;;;5.42;58.62
66479;BME280;53294;47.912;13.526;2022-12-07T13:45:43;95957.50;;;5.37;58.31
66479;BME280;53294;47.912;13.526;2022-12-07T13:51:27;95952.94;;;5.64;58.65
66479;BME280;53294;47.912;13.526;2022-12-07T13:53:59;95960.44;;;5.46;58.38
66479;BME280;53294;47.912;13.526;2022-12-07T13:56:32;95955.63;;;5.12;58.27
66479;BME280;53294;47.912;13.526;2022-12-07T13:59:00;95955.63;;;5.33;58.23
66479;BME280;53294;47.912;13.526;2022-12-07T14:01:30;95951.34;;;5.57;58.10
66479;BME280;53294;47.912;13.526;2022-12-07T14:04:37;95953.50;;;5.55;57.73
66479;BME280;53294;47.912;13.526;2022-12-07T14:07:25;95950.28;;;5.64;57.66
66479;BME280;53294;47.912;13.526;2022-12-07T14:10:05;95950.28;;;5.74;58.16
66479;BME280;53294;47.912;13.526;2022-12-07T14:12:36;95957.50;;;5.43;57.72
66479;BME280;53294;47.912;13.526;2022-12-07T14:15:03;95949.78;;;5.46;58.06
66479;BME280;53294;47.912;13.526;2022-12-07T14:17:31;95951.09;;;5.64;58.13
66479;BME280;53294;47.912;13.526;2022-12-07T14:19:59;95958.28;;;5.69;58.25
66479;BME280;53294;47.912;13.526;2022-12-07T14:22:37;95955.06;;;5.87;58.50
66479;BME280;53294;47.912;13.526;2022-12-07T14:25:27;95958.50;;;5.78;58.28
66479;BME280;53294;47.912;13.526;2022-12-07T14:28:02;95953.47;;;5.76;59.03
66479;BME280;53294;47.912;13.526;2022-12-07T14:30:31;95954.00;;;5.78;58.53
66479;BME280;53294;47.912;13.526;2022-12-07T14:33:00;95956.66;;;5.78;58.65
66479;BME280;53294;47.912;13.526;2022-12-07T14:35:28;95955.31;;;5.81;58.56
66479;BME280;53294;47.912;13.526;2022-12-07T14:37:56;95952.63;;;5.91;58.83
66479;BME280;53294;47.912;13.526;2022-12-07T14:40:24;95957.97;;;5.91;58.27
66479;BME280;53294;47.912;13.526;2022-12-07T14:42:54;95952.66;;;5.75;58.24
66479;BME280;53294;47.912;13.526;2022-12-07T14:45:23;95951.84;;;5.85;58.28
66479;BME280;53294;47.912;13.526;2022-12-07T14:47:49;95950.81;;;5.81;58.25
66479;BME280;53294;47.912;13.526;2022-12-07T14:50:39;95948.38;;;5.85;58.03
66479;BME280;53294;47.912;13.526;2022-12-07T14:53:31;95943.84;;;5.90;58.17
66479;BME280;53294;47.912;13.526;2022-12-07T14:56:00;95949.16;;;5.96;58.23
66479;BME280;53294;47.912;13.526;2022-12-07T14:58:26;95943.59;;;5.97;58.08
66479;BME280;53294;47.912;13.526;2022-12-07T15:00:53;95951.31;;;5.99;58.00
66479;BME280;53294;47.912;13.526;2022-12-07T15:03:20;95951.81;;;5.96;58.36
66479;BME280;53294;47.912;13.526;2022-12-07T15:05:46;95948.66;;;5.99;58.19
66479;BME280;53294;47.912;13.526;2022-12-07T15:08:13;95948.91;;;5.97;58.01
66479;BME280;53294;47.912;13.526;2022-12-07T15:10:40;95939.59;;;6.00;57.92
66479;BME280;53294;47.912;13.526;2022-12-07T15:13:07;95939.56;;;6.05;58.19